sensor_id;sensor_type;location;lat;lon;timestamp;pressure;altitude;pressure_sealevel;temperature;humidity
7480;BME280;3781;42.272;22.658;2022-11-20T00:01:11;93923.88;;;17.35;nan
7480;BME280;3781;42.272;22.658;2022-11-20T00:03:38;93939.13;;;17.25;nan
7480;BME280;3781;42.272;22.658;2022-11-20T00:06:07;93939.13;;;17.25;nan
7480;BME280;3781;42.272;22.658;2022-11-20T00:08:34;93921.16;;;17.22;nan
7480;BME280;3781;42.272;22.658;2022-11-20T00:11:03;93922.63;;;17.31;nan
7480;BME280;3781;42.272;22.658;2022-11-20T00:13:30;93912.75;;;17.33;nan
7480;BME280;3781;42.272;22.658;2022-11-20T00:15:59;93918.84;;;17.40;nan
7480;BME280;3781;42.272;22.658;2022-11-20T00:18:27;93917.22;;;17.39;nan
7480;BME280;3781;42.272;22.658;2022-11-20T00:21:00;93948.06;;;17.30;nan
7480;BME280;3781;42.272;22.658;2022-11-20T00:23:28;93931.59;;;17.43;nan
7480;BME280;3781;42.272;22.658;2022-11-20T00:25:55;93922.84;;;17.36;nan
7480;BME280;3781;42.272;22.658;2022-11-20T00:28:22;93938.38;;;17.31;nan
7480;BME280;3781;42.272;22.658;2022-11-20T00:30:48;93927.72;;;17.39;nan
7480;BME280;3781;42.272;22.658;2022-11-20T00:33:16;93937.34;;;17.53;nan
7480;BME280;3781;42.272;22.658;2022-11-20T00:35:43;93938.06;;;17.47;nan
7480;BME280;3781;42.272;22.658;2022-11-20T00:38:10;93926.72;;;17.40;nan
7480;BME280;3781;42.272;22.658;2022-11-20T00:40:37;93928.34;;;17.41;nan
7480;BME280;3781;42.272;22.658;2022-11-20T00:43:04;93915.53;;;17.53;nan
7480;BME280;3781;42.272;22.658;2022-11-20T00:45:30;93923.59;;;17.51;nan
7480;BME280;3781;42.272;22.658;2022-11-20T00:47:57;93935.72;;;17.52;nan
7480;BME280;3781;42.272;22.658;2022-11-20T00:50:25;93917.84;;;17.41;nan
7480;BME280;3781;42.272;22.658;2022-11-20T00:52:52;93893.06;;;17.16;nan
7480;BME280;3781;42.272;22.658;2022-11-20T00:55:19;93910.50;;;17.30;nan
7480;BME280;3781;42.272;22.658;2022-11-20T00:57:45;93914.25;;;17.76;nan
7480;BME280;3781;42.272;22.658;2022-11-20T01:00:12;93892.22;;;17.77;nan
7480;BME280;3781;42.272;22.658;2022-11-20T01:02:39;93898.03;;;17.66;nan
7480;BME280;3781;42.272;22.658;2022-11-20T01:05:06;93883.81;;;17.54;nan
7480;BME280;3781;42.272;22.658;2022-11-20T01:07:35;93900.78;;;17.52;nan
7480;BME280;3781;42.272;22.658;2022-11-20T01:10:01;93900.81;;;17.58;nan
7480;BME280;3781;42.272;22.658;2022-11-20T01:12:28;93890.56;;;17.63;nan
7480;BME280;3781;42.272;22.658;2022-11-20T01:14:55;93873.69;;;17.85;nan
7480;BME280;3781;42.272;22.658;2022-11-20T01:17:22;93874.03;;;17.76;nan
7480;BME280;3781;42.272;22.658;2022-11-20T01:19:49;93875.56;;;17.57;nan
7480;BME280;3781;42.272;22.658;2022-11-20T01:22:16;93862.22;;;17.52;nan
7480;BME280;3781;42.272;22.658;2022-11-20T01:24:44;93853.72;;;17.50;nan
7480;BME280;3781;42.272;22.658;2022-11-20T01:27:11;93824.94;;;17.42;nan
7480;BME280;3781;42.272;22.658;2022-11-20T01:29:37;93856.84;;;17.39;nan
7480;BME280;3781;42.272;22.658;2022-11-20T01:32:04;93864.31;;;17.42;nan
7480;BME280;3781;42.272;22.658;2022-11-20T01:34:31;93854.22;;;17.39;nan
7480;BME280;3781;42.272;22.658;2022-11-20T01:36:58;93855.22;;;17.38;nan
7480;BME280;3781;42.272;22.658;2022-11-20T01:39:26;93865.34;;;17.41;nan
7480;BME280;3781;42.272;22.658;2022-11-20T01:41:55;93856.16;;;17.24;nan
7480;BME280;3781;42.272;22.658;2022-11-20T01:44:50;93834.06;;;17.12;nan
7480;BME280;3781;42.272;22.658;2022-11-20T01:47:24;93831.75;;;17.30;nan
7480;BME280;3781;42.272;22.658;2022-11-20T01:49:54;93804.22;;;17.13;nan
7480;BME280;3781;42.272;22.658;2022-11-20T01:52:24;93827.72;;;17.27;nan
7480;BME280;3781;42.272;22.658;2022-11-20T01:54:56;93841.28;;;17.31;nan
7480;BME280;3781;42.272;22.658;2022-11-20T01:57:28;93796.91;;;17.08;nan
7480;BME280;3781;42.272;22.658;2022-11-20T01:59:59;93820.81;;;17.20;nan
7480;BME280;3781;42.272;22.658;2022-11-20T02:02:27;93818.41;;;17.25;nan
7480;BME280;3781;42.272;22.658;2022-11-20T02:04:56;93834.16;;;17.25;nan
7480;BME280;3781;42.272;22.658;2022-11-20T02:07:26;93827.38;;;17.37;nan
7480;BME280;3781;42.272;22.658;2022-11-20T02:09:53;93837.00;;;17.30;nan
7480;BME280;3781;42.272;22.658;2022-11-20T02:12:20;93816.31;;;17.14;nan
7480;BME280;3781;42.272;22.658;2022-11-20T02:15:06;93810.84;;;17.09;nan
7480;BME280;3781;42.272;22.658;2022-11-20T02:17:33;93830.22;;;17.08;nan
7480;BME280;3781;42.272;22.658;2022-11-20T02:19:59;93846.13;;;17.34;nan
7480;BME280;3781;42.272;22.658;2022-11-20T02:22:30;93859.47;;;17.39;nan
7480;BME280;3781;42.272;22.658;2022-11-20T02:25:00;93852.47;;;17.46;nan
7480;BME280;3781;42.272;22.658;2022-11-20T02:27:28;93856.38;;;17.57;nan
7480;BME280;3781;42.272;22.658;2022-11-20T02:29:58;93877.63;;;17.68;nan
7480;BME280;3781;42.272;22.658;2022-11-20T02:32:28;93859.31;;;17.47;nan
7480;BME280;3781;42.272;22.658;2022-11-20T02:34:55;93884.47;;;17.63;nan
7480;BME280;3781;42.272;22.658;2022-11-20T02:37:22;93842.94;;;17.45;nan
7480;BME280;3781;42.272;22.658;2022-11-20T02:39:51;93820.28;;;17.31;nan
7480;BME280;3781;42.272;22.658;2022-11-20T02:42:19;93868.81;;;17.82;nan
7480;BME280;3781;42.272;22.658;2022-11-20T02:44:46;93853.56;;;17.58;nan
7480;BME280;3781;42.272;22.658;2022-11-20T02:47:12;93878.22;;;17.57;nan
7480;BME280;3781;42.272;22.658;2022-11-20T02:49:39;93859.63;;;17.59;nan
7480;BME280;3781;42.272;22.658;2022-11-20T02:52:06;93870.41;;;17.70;nan
7480;BME280;3781;42.272;22.658;2022-11-20T02:54:33;93855.88;;;17.47;nan
7480;BME280;3781;42.272;22.658;2022-11-20T02:57:00;93905.34;;;17.77;nan
7480;BME280;3781;42.272;22.658;2022-11-20T02:59:28;93871.16;;;17.64;nan
7480;BME280;3781;42.272;22.658;2022-11-20T03:01:54;93887.19;;;17.48;nan
7480;BME280;3781;42.272;22.658;2022-11-20T03:04:21;93885.69;;;17.60;nan
7480;BME280;3781;42.272;22.658;2022-11-20T03:06:48;93893.13;;;17.57;nan
7480;BME280;3781;42.272;22.658;2022-11-20T03:09:14;93895.81;;;17.63;nan
7480;BME280;3781;42.272;22.658;2022-11-20T03:11:41;93898.50;;;17.76;nan
7480;BME280;3781;42.272;22.658;2022-11-20T03:14:08;93898.31;;;17.84;nan
7480;BME280;3781;42.272;22.658;2022-11-20T03:16:36;93903.59;;;17.91;nan
7480;BME280;3781;42.272;22.658;2022-11-20T03:19:03;93907.38;;;17.75;nan
7480;BME280;3781;42.272;22.658;2022-11-20T03:21:30;93863.19;;;17.51;nan
7480;BME280;3781;42.272;22.658;2022-11-20T03:23:57;93890.38;;;17.37;nan
7480;BME280;3781;42.272;22.658;2022-11-20T03:26:24;93871.50;;;17.27;nan
7480;BME280;3781;42.272;22.658;2022-11-20T03:28:53;93873.38;;;17.61;nan
7480;BME280;3781;42.272;22.658;2022-11-20T03:31:22;93871.66;;;17.19;nan
7480;BME280;3781;42.272;22.658;2022-11-20T03:33:51;93896.28;;;17.18;nan
7480;BME280;3781;42.272;22.658;2022-11-20T03:36:18;93883.91;;;17.40;nan
7480;BME280;3781;42.272;22.658;2022-11-20T03:38:46;93901.09;;;17.14;nan
7480;BME280;3781;42.272;22.658;2022-11-20T03:41:15;93914.41;;;17.13;nan
7480;BME280;3781;42.272;22.658;2022-11-20T03:43:42;93904.00;;;17.26;nan
7480;BME280;3781;42.272;22.658;2022-11-20T03:46:08;93891.50;;;17.28;nan
7480;BME280;3781;42.272;22.658;2022-11-20T03:48:35;93902.97;;;17.48;nan
7480;BME280;3781;42.272;22.658;2022-11-20T03:51:11;93884.91;;;17.39;nan
7480;BME280;3781;42.272;22.658;2022-11-20T03:53:39;93862.28;;;17.31;nan
7480;BME280;3781;42.272;22.658;2022-11-20T03:56:06;93877.56;;;17.27;nan
7480;BME280;3781;42.272;22.658;2022-11-20T03:58:34;93876.75;;;17.27;nan
7480;BME280;3781;42.272;22.658;2022-11-20T04:01:06;93869.03;;;16.91;nan
7480;BME280;3781;42.272;22.658;2022-11-20T04:03:33;93850.59;;;17.06;nan
7480;BME280;3781;42.272;22.658;2022-11-20T04:06:05;93893.31;;;17.27;nan
7480;BME280;3781;42.272;22.658;2022-11-20T04:08:34;93872.38;;;17.34;nan
7480;BME280;3781;42.272;22.658;2022-11-20T04:11:11;93855.69;;;16.86;nan
7480;BME280;3781;42.272;22.658;2022-11-20T04:13:38;93863.47;;;16.52;nan
7480;BME280;3781;42.272;22.658;2022-11-20T04:16:06;93835.53;;;16.02;nan
7480;BME280;3781;42.272;22.658;2022-11-20T04:18:33;93805.28;;;15.64;nan
7480;BME280;3781;42.272;22.658;2022-11-20T04:21:00;93794.25;;;16.04;nan
7480;BME280;3781;42.272;22.658;2022-11-20T04:23:28;93804.31;;;16.01;nan
7480;BME280;3781;42.272;22.658;2022-11-20T04:26:01;93876.56;;;17.01;nan
7480;BME280;3781;42.272;22.658;2022-11-20T04:28:28;93834.88;;;17.12;nan
7480;BME280;3781;42.272;22.658;2022-11-20T04:31:01;93834.94;;;17.19;nan
7480;BME280;3781;42.272;22.658;2022-11-20T04:33:28;93843.03;;;17.24;nan
7480;BME280;3781;42.272;22.658;2022-11-20T04:35:55;93838.84;;;17.02;nan
7480;BME280;3781;42.272;22.658;2022-11-20T04:38:21;93857.00;;;17.03;nan
7480;BME280;3781;42.272;22.658;2022-11-20T04:40:48;93850.63;;;17.12;nan
7480;BME280;3781;42.272;22.658;2022-11-20T04:43:16;93834.47;;;17.09;nan
7480;BME280;3781;42.272;22.658;2022-11-20T04:45:50;93820.31;;;16.76;nan
7480;BME280;3781;42.272;22.658;2022-11-20T04:48:17;93834.84;;;17.06;nan
7480;BME280;3781;42.272;22.658;2022-11-20T04:50:43;93832.06;;;17.14;nan
7480;BME280;3781;42.272;22.658;2022-11-20T04:53:10;93845.81;;;17.16;nan
7480;BME280;3781;42.272;22.658;2022-11-20T04:55:37;93837.19;;;17.22;nan
7480;BME280;3781;42.272;22.658;2022-11-20T04:58:04;93853.22;;;17.40;nan
7480;BME280;3781;42.272;22.658;2022-11-20T05:00:32;93849.16;;;17.31;nan
7480;BME280;3781;42.272;22.658;2022-11-20T05:02:58;93832.84;;;17.08;nan
7480;BME280;3781;42.272;22.658;2022-11-20T05:05:25;93846.88;;;16.94;nan
7480;BME280;3781;42.272;22.658;2022-11-20T05:07:52;93854.50;;;16.89;nan
7480;BME280;3781;42.272;22.658;2022-11-20T05:10:19;93840.66;;;16.74;nan
7480;BME280;3781;42.272;22.658;2022-11-20T05:12:45;93857.56;;;17.20;nan
7480;BME280;3781;42.272;22.658;2022-11-20T05:15:19;93854.66;;;17.43;nan
7480;BME280;3781;42.272;22.658;2022-11-20T05:17:48;93868.59;;;17.43;nan
7480;BME280;3781;42.272;22.658;2022-11-20T05:20:15;93849.59;;;17.41;nan
7480;BME280;3781;42.272;22.658;2022-11-20T05:22:42;93830.00;;;17.37;nan
7480;BME280;3781;42.272;22.658;2022-11-20T05:25:10;93848.50;;;17.29;nan
7480;BME280;3781;42.272;22.658;2022-11-20T05:27:37;93853.00;;;17.35;nan
7480;BME280;3781;42.272;22.658;2022-11-20T05:30:05;93867.72;;;17.36;nan
7480;BME280;3781;42.272;22.658;2022-11-20T05:32:32;93850.22;;;17.43;nan
7480;BME280;3781;42.272;22.658;2022-11-20T05:35:01;93884.75;;;17.47;nan
7480;BME280;3781;42.272;22.658;2022-11-20T05:37:27;93875.03;;;17.41;nan
7480;BME280;3781;42.272;22.658;2022-11-20T05:39:57;93878.31;;;17.49;nan
7480;BME280;3781;42.272;22.658;2022-11-20T05:42:24;93847.06;;;17.20;nan
7480;BME280;3781;42.272;22.658;2022-11-20T05:44:56;93871.50;;;17.27;nan
7480;BME280;3781;42.272;22.658;2022-11-20T05:47:23;93870.94;;;17.31;nan
7480;BME280;3781;42.272;22.658;2022-11-20T05:49:49;93896.38;;;17.31;nan
7480;BME280;3781;42.272;22.658;2022-11-20T05:52:18;93897.22;;;17.38;nan
7480;BME280;3781;42.272;22.658;2022-11-20T05:54:44;93883.72;;;17.41;nan
7480;BME280;3781;42.272;22.658;2022-11-20T05:57:11;93854.63;;;17.08;nan
7480;BME280;3781;42.272;22.658;2022-11-20T05:59:38;93876.03;;;17.12;nan
7480;BME280;3781;42.272;22.658;2022-11-20T06:02:05;93873.16;;;17.00;nan
7480;BME280;3781;42.272;22.658;2022-11-20T06:04:31;93856.69;;;17.13;nan
7480;BME280;3781;42.272;22.658;2022-11-20T06:06:58;93877.38;;;17.29;nan
7480;BME280;3781;42.272;22.658;2022-11-20T06:09:26;93883.88;;;17.33;nan
7480;BME280;3781;42.272;22.658;2022-11-20T06:11:53;93885.50;;;17.34;nan
7480;BME280;3781;42.272;22.658;2022-11-20T06:14:19;93880.97;;;17.21;nan
7480;BME280;3781;42.272;22.658;2022-11-20T06:16:46;93895.53;;;17.24;nan
7480;BME280;3781;42.272;22.658;2022-11-20T06:19:13;93898.97;;;17.24;nan
7480;BME280;3781;42.272;22.658;2022-11-20T06:21:40;93895.28;;;17.19;nan
7480;BME280;3781;42.272;22.658;2022-11-20T06:24:08;93895.06;;;16.93;nan
7480;BME280;3781;42.272;22.658;2022-11-20T06:26:37;93896.34;;;16.76;nan
7480;BME280;3781;42.272;22.658;2022-11-20T06:29:04;93897.59;;;16.58;nan
7480;BME280;3781;42.272;22.658;2022-11-20T06:31:30;93890.06;;;16.34;nan
7480;BME280;3781;42.272;22.658;2022-11-20T06:34:00;93903.53;;;16.31;nan
7480;BME280;3781;42.272;22.658;2022-11-20T06:36:27;93892.19;;;16.24;nan
7480;BME280;3781;42.272;22.658;2022-11-20T06:38:54;93906.13;;;16.10;nan
7480;BME280;3781;42.272;22.658;2022-11-20T06:41:21;93901.25;;;16.07;nan
7480;BME280;3781;42.272;22.658;2022-11-20T06:43:50;93872.41;;;15.86;nan
7480;BME280;3781;42.272;22.658;2022-11-20T06:46:17;93891.00;;;15.91;nan
7480;BME280;3781;42.272;22.658;2022-11-20T06:48:45;93902.38;;;15.98;nan
7480;BME280;3781;42.272;22.658;2022-11-20T06:51:12;93899.38;;;16.01;nan
7480;BME280;3781;42.272;22.658;2022-11-20T06:53:39;93914.69;;;16.19;nan
7480;BME280;3781;42.272;22.658;2022-11-20T06:56:06;93921.78;;;16.39;nan
7480;BME280;3781;42.272;22.658;2022-11-20T06:58:34;93928.81;;;16.53;nan
7480;BME280;3781;42.272;22.658;2022-11-20T07:01:04;93922.09;;;16.66;nan
7480;BME280;3781;42.272;22.658;2022-11-20T07:03:31;93928.25;;;16.79;nan
7480;BME280;3781;42.272;22.658;2022-11-20T07:06:00;93948.66;;;16.84;nan
7480;BME280;3781;42.272;22.658;2022-11-20T07:08:27;93950.56;;;16.90;nan
7480;BME280;3781;42.272;22.658;2022-11-20T07:10:57;93938.91;;;16.99;nan
7480;BME280;3781;42.272;22.658;2022-11-20T07:13:24;93941.94;;;16.96;nan
7480;BME280;3781;42.272;22.658;2022-11-20T07:15:51;93950.22;;;16.99;nan
7480;BME280;3781;42.272;22.658;2022-11-20T07:18:20;93946.91;;;16.91;nan
7480;BME280;3781;42.272;22.658;2022-11-20T07:20:46;93961.03;;;16.90;nan
7480;BME280;3781;42.272;22.658;2022-11-20T07:23:13;93964.16;;;16.79;nan
7480;BME280;3781;42.272;22.658;2022-11-20T07:25:40;93985.44;;;16.69;nan
7480;BME280;3781;42.272;22.658;2022-11-20T07:28:07;93987.47;;;16.38;nan
7480;BME280;3781;42.272;22.658;2022-11-20T07:30:36;93976.56;;;16.34;nan
7480;BME280;3781;42.272;22.658;2022-11-20T07:33:03;93973.81;;;16.42;nan
7480;BME280;3781;42.272;22.658;2022-11-20T07:35:31;93954.38;;;16.01;nan
7480;BME280;3781;42.272;22.658;2022-11-20T07:37:58;93983.81;;;16.03;nan
7480;BME280;3781;42.272;22.658;2022-11-20T07:40:25;93970.47;;;15.69;nan
7480;BME280;3781;42.272;22.658;2022-11-20T07:42:54;93992.66;;;15.44;nan
7480;BME280;3781;42.272;22.658;2022-11-20T07:45:23;93967.06;;;15.31;nan
7480;BME280;3781;42.272;22.658;2022-11-20T07:47:50;93958.66;;;15.44;nan
7480;BME280;3781;42.272;22.658;2022-11-20T07:50:17;93952.06;;;15.48;nan
7480;BME280;3781;42.272;22.658;2022-11-20T07:52:46;93947.22;;;15.22;nan
7480;BME280;3781;42.272;22.658;2022-11-20T07:55:13;93960.66;;;15.34;nan
7480;BME280;3781;42.272;22.658;2022-11-20T07:57:39;93965.53;;;15.37;nan
7480;BME280;3781;42.272;22.658;2022-11-20T08:00:09;93970.25;;;15.41;nan
7480;BME280;3781;42.272;22.658;2022-11-20T08:02:37;93909.41;;;15.25;nan
7480;BME280;3781;42.272;22.658;2022-11-20T08:05:05;93943.19;;;15.49;nan
7480;BME280;3781;42.272;22.658;2022-11-20T08:07:35;93941.41;;;15.64;nan
7480;BME280;3781;42.272;22.658;2022-11-20T08:10:04;93958.53;;;15.66;nan
7480;BME280;3781;42.272;22.658;2022-11-20T08:12:31;93973.25;;;15.53;nan
7480;BME280;3781;42.272;22.658;2022-11-20T08:15:15;93953.50;;;15.65;nan
7480;BME280;3781;42.272;22.658;2022-11-20T08:17:42;93972.63;;;16.09;nan
7480;BME280;3781;42.272;22.658;2022-11-20T08:20:09;93997.34;;;16.50;nan
7480;BME280;3781;42.272;22.658;2022-11-20T08:22:36;94009.81;;;16.19;nan
7480;BME280;3781;42.272;22.658;2022-11-20T08:25:05;94023.56;;;16.21;nan
7480;BME280;3781;42.272;22.658;2022-11-20T08:27:31;94008.41;;;16.02;nan
7480;BME280;3781;42.272;22.658;2022-11-20T08:29:58;94011.22;;;16.01;nan
7480;BME280;3781;42.272;22.658;2022-11-20T08:32:25;94019.56;;;16.25;nan
7480;BME280;3781;42.272;22.658;2022-11-20T08:34:51;94000.25;;;15.97;nan
7480;BME280;3781;42.272;22.658;2022-11-20T08:37:19;94010.13;;;15.80;nan
7480;BME280;3781;42.272;22.658;2022-11-20T08:39:45;94001.34;;;15.88;nan
7480;BME280;3781;42.272;22.658;2022-11-20T08:42:14;94003.91;;;15.96;nan
7480;BME280;3781;42.272;22.658;2022-11-20T08:44:40;93977.59;;;16.04;nan
7480;BME280;3781;42.272;22.658;2022-11-20T08:47:08;93987.19;;;16.47;nan
7480;BME280;3781;42.272;22.658;2022-11-20T08:49:35;93983.22;;;16.51;nan
7480;BME280;3781;42.272;22.658;2022-11-20T08:52:01;93974.78;;;16.92;nan
7480;BME280;3781;42.272;22.658;2022-11-20T08:54:28;93955.19;;;17.98;nan
7480;BME280;3781;42.272;22.658;2022-11-20T08:56:55;93995.44;;;19.13;nan
7480;BME280;3781;42.272;22.658;2022-11-20T08:59:23;93947.03;;;19.08;nan
7480;BME280;3781;42.272;22.658;2022-11-20T09:01:50;93993.38;;;18.89;nan
7480;BME280;3781;42.272;22.658;2022-11-20T09:04:16;93998.56;;;18.63;nan
7480;BME280;3781;42.272;22.658;2022-11-20T09:06:43;94003.91;;;18.42;nan
7480;BME280;3781;42.272;22.658;2022-11-20T09:09:10;94004.16;;;18.47;nan
7480;BME280;3781;42.272;22.658;2022-11-20T09:11:37;93991.09;;;18.26;nan
7480;BME280;3781;42.272;22.658;2022-11-20T09:14:04;93981.16;;;17.80;nan
7480;BME280;3781;42.272;22.658;2022-11-20T09:16:32;93972.91;;;17.56;nan
7480;BME280;3781;42.272;22.658;2022-11-20T09:18:59;93977.41;;;17.68;nan
7480;BME280;3781;42.272;22.658;2022-11-20T09:21:25;93945.81;;;17.55;nan
7480;BME280;3781;42.272;22.658;2022-11-20T09:23:52;93967.22;;;17.52;nan
7480;BME280;3781;42.272;22.658;2022-11-20T09:26:19;93988.69;;;18.31;nan
7480;BME280;3781;42.272;22.658;2022-11-20T09:28:46;93989.25;;;18.60;nan
7480;BME280;3781;42.272;22.658;2022-11-20T09:31:19;93992.25;;;18.57;nan
7480;BME280;3781;42.272;22.658;2022-11-20T09:33:49;93990.72;;;18.29;nan
7480;BME280;3781;42.272;22.658;2022-11-20T09:36:16;93993.19;;;17.68;nan
7480;BME280;3781;42.272;22.658;2022-11-20T09:38:44;93996.72;;;17.54;nan
7480;BME280;3781;42.272;22.658;2022-11-20T09:44:28;94004.13;;;16.81;nan
7480;BME280;3781;42.272;22.658;2022-11-20T09:47:02;93998.34;;;16.71;nan
7480;BME280;3781;42.272;22.658;2022-11-20T09:49:50;93983.03;;;16.38;nan
7480;BME280;3781;42.272;22.658;2022-11-20T09:52:24;93992.75;;;16.23;nan
7480;BME280;3781;42.272;22.658;2022-11-20T09:54:56;93997.72;;;16.18;nan
7480;BME280;3781;42.272;22.658;2022-11-20T09:57:30;94004.16;;;16.16;nan
7480;BME280;3781;42.272;22.658;2022-11-20T10:00:00;93977.06;;;15.79;nan
7480;BME280;3781;42.272;22.658;2022-11-20T10:02:30;93998.00;;;15.65;nan
7480;BME280;3781;42.272;22.658;2022-11-20T10:05:06;93979.88;;;15.26;nan
7480;BME280;3781;42.272;22.658;2022-11-20T10:07:42;93971.31;;;14.95;nan
7480;BME280;3781;42.272;22.658;2022-11-20T10:10:15;93939.13;;;14.49;nan
7480;BME280;3781;42.272;22.658;2022-11-20T10:12:55;93926.47;;;14.38;nan
7480;BME280;3781;42.272;22.658;2022-11-20T10:15:31;93938.97;;;14.20;nan
7480;BME280;3781;42.272;22.658;2022-11-20T10:18:14;93958.09;;;14.12;nan
7480;BME280;3781;42.272;22.658;2022-11-20T10:20:52;93949.81;;;14.01;nan
7480;BME280;3781;42.272;22.658;2022-11-20T10:23:31;93961.47;;;13.90;nan
7480;BME280;3781;42.272;22.658;2022-11-20T10:26:16;93956.16;;;13.76;nan
7480;BME280;3781;42.272;22.658;2022-11-20T10:28:52;93899.63;;;13.60;nan
7480;BME280;3781;42.272;22.658;2022-11-20T10:31:28;93891.16;;;13.11;nan
7480;BME280;3781;42.272;22.658;2022-11-20T10:33:57;93915.41;;;13.12;nan
7480;BME280;3781;42.272;22.658;2022-11-20T10:36:30;93930.53;;;13.32;nan
7480;BME280;3781;42.272;22.658;2022-11-20T10:39:05;93921.25;;;13.30;nan
7480;BME280;3781;42.272;22.658;2022-11-20T10:41:41;93905.56;;;13.38;nan
7480;BME280;3781;42.272;22.658;2022-11-20T10:44:14;93894.94;;;13.47;nan
7480;BME280;3781;42.272;22.658;2022-11-20T10:47:02;93916.22;;;13.67;nan
7480;BME280;3781;42.272;22.658;2022-11-20T10:49:30;93922.56;;;13.73;nan
7480;BME280;3781;42.272;22.658;2022-11-20T10:52:09;93946.28;;;13.94;nan
7480;BME280;3781;42.272;22.658;2022-11-20T10:54:42;93926.06;;;13.96;nan
7480;BME280;3781;42.272;22.658;2022-11-20T10:57:23;93994.03;;;14.10;nan
7480;BME280;3781;42.272;22.658;2022-11-20T11:00:01;93952.09;;;14.04;nan
7480;BME280;3781;42.272;22.658;2022-11-20T11:02:35;93908.63;;;13.88;nan
7480;BME280;3781;42.272;22.658;2022-11-20T11:05:17;93939.06;;;14.04;nan
7480;BME280;3781;42.272;22.658;2022-11-20T11:07:48;93918.34;;;13.72;nan
7480;BME280;3781;42.272;22.658;2022-11-20T11:10:18;93907.34;;;13.45;nan
7480;BME280;3781;42.272;22.658;2022-11-20T11:12:46;93892.09;;;13.26;nan
7480;BME280;3781;42.272;22.658;2022-11-20T11:15:24;93875.25;;;13.37;nan
7480;BME280;3781;42.272;22.658;2022-11-20T11:17:52;93834.00;;;13.40;nan
7480;BME280;3781;42.272;22.658;2022-11-20T11:20:20;93884.44;;;13.64;nan
7480;BME280;3781;42.272;22.658;2022-11-20T11:22:49;93878.59;;;13.53;nan
7480;BME280;3781;42.272;22.658;2022-11-20T11:25:26;93860.06;;;13.40;nan
7480;BME280;3781;42.272;22.658;2022-11-20T11:27:55;93889.13;;;13.29;nan
7480;BME280;3781;42.272;22.658;2022-11-20T11:30:23;93878.00;;;13.35;nan
7480;BME280;3781;42.272;22.658;2022-11-20T11:32:50;93884.53;;;13.39;nan
7480;BME280;3781;42.272;22.658;2022-11-20T11:35:25;93865.25;;;13.56;nan
7480;BME280;3781;42.272;22.658;2022-11-20T11:38:03;93869.63;;;13.56;nan
7480;BME280;3781;42.272;22.658;2022-11-20T11:40:32;93865.88;;;13.58;nan
7480;BME280;3781;42.272;22.658;2022-11-20T11:43:02;93885.38;;;13.79;nan
7480;BME280;3781;42.272;22.658;2022-11-20T11:45:30;93886.59;;;13.91;nan
7480;BME280;3781;42.272;22.658;2022-11-20T11:47:58;93880.94;;;14.55;nan
7480;BME280;3781;42.272;22.658;2022-11-20T11:50:27;93883.63;;;15.51;nan
7480;BME280;3781;42.272;22.658;2022-11-20T11:53:03;93898.78;;;15.41;nan
7480;BME280;3781;42.272;22.658;2022-11-20T11:55:36;93913.38;;;15.21;nan
7480;BME280;3781;42.272;22.658;2022-11-20T11:58:16;93921.19;;;15.06;nan
7480;BME280;3781;42.272;22.658;2022-11-20T12:00:50;93899.13;;;15.08;nan
7480;BME280;3781;42.272;22.658;2022-11-20T12:03:21;93929.44;;;15.18;nan
7480;BME280;3781;42.272;22.658;2022-11-20T12:05:55;93926.00;;;15.17;nan
7480;BME280;3781;42.272;22.658;2022-11-20T12:08:27;93887.94;;;15.15;nan
7480;BME280;3781;42.272;22.658;2022-11-20T12:11:04;93869.31;;;14.80;nan
7480;BME280;3781;42.272;22.658;2022-11-20T12:13:40;93909.16;;;14.82;nan
7480;BME280;3781;42.272;22.658;2022-11-20T12:16:12;93893.81;;;14.79;nan
7480;BME280;3781;42.272;22.658;2022-11-20T12:18:40;93909.38;;;14.95;nan
7480;BME280;3781;42.272;22.658;2022-11-20T12:21:19;93901.50;;;15.33;nan
7480;BME280;3781;42.272;22.658;2022-11-20T12:24:06;93880.84;;;15.67;nan
7480;BME280;3781;42.272;22.658;2022-11-20T12:26:52;93894.59;;;15.90;nan
7480;BME280;3781;42.272;22.658;2022-11-20T12:29:30;93902.53;;;16.11;nan
7480;BME280;3781;42.272;22.658;2022-11-20T12:32:23;93887.25;;;16.15;nan
7480;BME280;3781;42.272;22.658;2022-11-20T12:35:01;93875.06;;;16.07;nan
7480;BME280;3781;42.272;22.658;2022-11-20T12:37:38;93880.09;;;16.23;nan
7480;BME280;3781;42.272;22.658;2022-11-20T12:40:26;93870.53;;;16.16;nan
7480;BME280;3781;42.272;22.658;2022-11-20T12:43:02;93857.59;;;15.93;nan
7480;BME280;3781;42.272;22.658;2022-11-20T12:46:08;93812.72;;;15.46;nan
7480;BME280;3781;42.272;22.658;2022-11-20T12:48:52;93851.69;;;15.70;nan
7480;BME280;3781;42.272;22.658;2022-11-20T12:51:39;93838.16;;;15.52;nan
7480;BME280;3781;42.272;22.658;2022-11-20T12:57:28;93847.19;;;15.35;nan
7480;BME280;3781;42.272;22.658;2022-11-20T13:00:03;93858.81;;;15.32;nan
7480;BME280;3781;42.272;22.658;2022-11-20T13:02:41;93859.00;;;15.31;nan
7480;BME280;3781;42.272;22.658;2022-11-20T13:05:19;93861.97;;;15.28;nan
7480;BME280;3781;42.272;22.658;2022-11-20T13:07:50;93861.97;;;15.28;nan
7480;BME280;3781;42.272;22.658;2022-11-20T13:10:23;93857.28;;;15.08;nan
7480;BME280;3781;42.272;22.658;2022-11-20T13:12:58;93816.84;;;14.96;nan
7480;BME280;3781;42.272;22.658;2022-11-20T13:15:36;93831.59;;;15.27;nan
7480;BME280;3781;42.272;22.658;2022-11-20T13:18:09;93846.63;;;15.25;nan
7480;BME280;3781;42.272;22.658;2022-11-20T13:20:41;93857.09;;;15.25;nan
7480;BME280;3781;42.272;22.658;2022-11-20T13:23:09;93857.47;;;15.51;nan
7480;BME280;3781;42.272;22.658;2022-11-20T13:25:37;93847.38;;;15.48;nan
7480;BME280;3781;42.272;22.658;2022-11-20T13:28:28;93855.31;;;15.40;nan
7480;BME280;3781;42.272;22.658;2022-11-20T13:30:56;93859.09;;;15.37;nan
7480;BME280;3781;42.272;22.658;2022-11-20T13:33:27;93852.41;;;15.20;nan
7480;BME280;3781;42.272;22.658;2022-11-20T13:35:56;93850.25;;;15.24;nan
7480;BME280;3781;42.272;22.658;2022-11-20T13:38:23;93857.47;;;15.22;nan
7480;BME280;3781;42.272;22.658;2022-11-20T13:40:52;93851.94;;;15.17;nan
7480;BME280;3781;42.272;22.658;2022-11-20T13:43:23;93849.16;;;15.03;nan
7480;BME280;3781;42.272;22.658;2022-11-20T13:46:02;93828.50;;;14.94;nan
7480;BME280;3781;42.272;22.658;2022-11-20T13:48:31;93834.19;;;14.97;nan
7480;BME280;3781;42.272;22.658;2022-11-20T13:51:08;93821.00;;;15.05;nan
7480;BME280;3781;42.272;22.658;2022-11-20T13:56:54;93817.22;;;15.23;nan